Savannah/Hunter AAF, Georgia
Current Conditions -  °F | °C
As of 11:58 AM on Thursday 30 Oct 2014 (Local Time) from KSVN Reporting Station
Broken Clouds Broken Clouds  
Wind Chill: 70°   Ceiling: 1600
Heat Index: 70°   Visibility: 10mi
Dew Point: 62°   Wind: 7mph
Humidity: 76%   Direction: 340°NNW
Pressure: 29.97"   Gusts: NA
Location:  32.02°N, 81.15°W
Report Text: KSVN 301558Z AUTO 34006KT 10SM BKN016 21/17 A2997 RMK AO2 BKN V OVC SLP152 T02090166
Loading
Personal Weather Stations






























Interactive Weather Map
Tropical Storm Tracking
New forecast layout! Learn more

10-Day Weather Forecast

Advertisements
Track Severe Weather on mobile